Time;durP1;ratioP1;P1;durP2;ratioP2;P2;SDS_P1;SDS_P2;PMS_P1;PMS_P2;Temp;Humidity;BMP_temperature;BMP_pressure;BME280_temperature;BME280_humidity;BME280_pressure;Samples;Min_cycle;Max_cycle;Signal;HPM_P1;HPM_P2
2023/06/09 00:00:13;;;;;;;6.47;5.70;;;;;;;;;;5048053;28;20184;-74
2023/06/09 00:02:38;;;;;;;6.23;4.70;;;;;;;;;;5039262;28;20221;-74
2023/06/09 00:05:04;;;;;;;6.20;5.60;;;;;;;;;;5058780;28;20226;-74
2023/06/09 00:07:33;;;;;;;5.90;5.40;;;;;;;;;;5066987;28;20195;-74
2023/06/09 00:09:58;;;;;;;6.10;5.60;;;;;;;;;;5051803;28;20217;-74
2023/06/09 00:12:24;;;;;;;7.73;5.53;;;;;;;;;;5062031;28;20170;-74
2023/06/09 00:14:49;;;;;;;6.37;5.77;;;;;;;;;;5079314;28;20174;-74
2023/06/09 00:17:14;;;;;;;6.10;5.50;;;;;;;;;;5056624;28;20178;-74
2023/06/09 00:19:41;;;;;;;5.93;5.40;;;;;;;;;;5076645;28;20170;-74
2023/06/09 00:22:13;;;;;;;5.47;5.00;;;;;;;;;;5054149;28;20183;-74
2023/06/09 00:24:38;;;;;;;5.93;5.23;;;;;;;;;;5067702;28;20180;-74
2023/06/09 00:27:03;;;;;;;6.20;5.60;;;;;;;;;;5074147;28;20332;-74
2023/06/09 00:29:29;;;;;;;8.40;5.97;;;;;;;;;;5071679;28;20275;-74
2023/06/09 00:31:54;;;;;;;5.17;4.73;;;;;;;;;;5073917;28;20193;-74
2023/06/09 00:34:19;;;;;;;6.33;5.73;;;;;;;;;;5056186;28;20187;-74
2023/06/09 00:36:44;;;;;;;6.27;5.77;;;;;;;;;;5059287;28;20188;-74
2023/06/09 00:39:10;;;;;;;6.20;5.60;;;;;;;;;;5058992;28;20323;-74
2023/06/09 00:41:39;;;;;;;6.27;5.67;;;;;;;;;;5074041;28;20213;-74
2023/06/09 00:44:04;;;;;;;5.93;5.43;;;;;;;;;;5078634;28;20268;-74
2023/06/09 00:46:29;;;;;;;6.03;5.53;;;;;;;;;;5061885;28;20321;-74
2023/06/09 00:48:55;;;;;;;5.57;5.17;;;;;;;;;;5074903;28;20211;-74
2023/06/09 00:51:20;;;;;;;6.33;5.33;;;;;;;;;;5059512;28;20217;-74
2023/06/09 00:53:45;;;;;;;7.43;6.57;;;;;;;;;;5067807;28;20182;-74
2023/06/09 00:56:12;;;;;;;6.60;6.00;;;;;;;;;;5076634;28;20192;-74
2023/06/09 00:58:37;;;;;;;6.50;6.00;;;;;;;;;;5053892;28;20181;-74
2023/06/09 01:01:02;;;;;;;6.50;5.90;;;;;;;;;;5056086;28;20181;-74
2023/06/09 01:03:28;;;;;;;7.20;6.40;;;;;;;;;;5049944;28;20177;-74
2023/06/09 01:06:02;;;;;;;5.67;4.87;;;;;;;;;;5058446;28;20255;-74
2023/06/09 01:08:34;;;;;;;6.33;5.80;;;;;;;;;;5056827;28;20200;-74
2023/06/09 01:11:06;;;;;;;5.90;5.40;;;;;;;;;;5074558;28;20213;-74
2023/06/09 01:13:38;;;;;;;6.10;5.50;;;;;;;;;;5051555;28;20184;-74
2023/06/09 01:16:05;;;;;;;7.37;6.67;;;;;;;;;;5053238;28;20244;-74
2023/06/09 01:18:32;;;;;;;5.83;5.33;;;;;;;;;;5051577;28;20185;-74
2023/06/09 01:21:06;;;;;;;6.40;5.73;;;;;;;;;;5072935;28;20185;-74
2023/06/09 01:23:47;;;;;;;6.50;5.90;;;;;;;;;;5057125;28;20181;-74
2023/06/09 01:26:14;;;;;;;6.67;6.00;;;;;;;;;;5052503;28;20187;-74
2023/06/09 01:28:40;;;;;;;7.10;6.40;;;;;;;;;;5054937;28;20178;-74
2023/06/09 01:31:07;;;;;;;7.20;6.50;;;;;;;;;;5074932;28;20185;-74
2023/06/09 01:33:34;;;;;;;6.67;6.07;;;;;;;;;;5051557;28;20269;-74
2023/06/09 01:35:59;;;;;;;6.70;6.10;;;;;;;;;;5073463;28;20169;-74
2023/06/09 01:38:25;;;;;;;7.20;6.50;;;;;;;;;;5055258;28;20177;-74
2023/06/09 01:40:50;;;;;;;6.33;5.80;;;;;;;;;;5073574;28;20245;-74
2023/06/09 01:43:16;;;;;;;6.90;6.30;;;;;;;;;;5068709;28;20182;-74
2023/06/09 01:45:41;;;;;;;6.33;5.73;;;;;;;;;;5046985;28;20189;-74
2023/06/09 01:48:11;;;;;;;6.17;5.57;;;;;;;;;;5073033;28;20184;-74
2023/06/09 01:50:57;;;;;;;6.77;6.17;;;;;;;;;;5075683;28;20201;-74
2023/06/09 01:53:28;;;;;;;6.87;6.27;;;;;;;;;;5040053;28;20182;-74
2023/06/09 01:56:14;;;;;;;6.90;6.30;;;;;;;;;;5050809;28;20212;-74
2023/06/09 01:58:42;;;;;;;6.97;6.23;;;;;;;;;;5071217;28;20178;-74
2023/06/09 02:01:07;;;;;;;8.57;7.07;;;;;;;;;;5072811;28;20168;-74
2023/06/09 02:03:35;;;;;;;6.53;5.93;;;;;;;;;;5075948;28;20173;-74
2023/06/09 02:06:01;;;;;;;7.23;6.63;;;;;;;;;;5051416;28;20265;-74
2023/06/09 02:08:29;;;;;;;6.97;6.27;;;;;;;;;;5047644;28;20211;-74
2023/06/09 02:10:54;;;;;;;6.30;5.70;;;;;;;;;;5061595;28;20216;-74
2023/06/09 02:13:19;;;;;;;6.87;6.17;;;;;;;;;;5053534;28;20173;-74
2023/06/09 02:15:48;;;;;;;6.23;5.63;;;;;;;;;;5069342;28;20376;-74
2023/06/09 02:18:15;;;;;;;7.23;6.53;;;;;;;;;;5069718;28;20230;-74
2023/06/09 02:20:40;;;;;;;7.33;6.63;;;;;;;;;;5055148;28;20174;-74
2023/06/09 02:23:06;;;;;;;7.53;6.83;;;;;;;;;;5046549;28;20192;-74
2023/06/09 02:25:32;;;;;;;7.93;7.23;;;;;;;;;;5073474;28;20182;-74
2023/06/09 02:27:58;;;;;;;8.27;6.30;;;;;;;;;;5052284;28;20189;-74
2023/06/09 02:30:23;;;;;;;8.70;7.90;;;;;;;;;;5052047;28;20347;-74
2023/06/09 02:32:49;;;;;;;7.93;7.23;;;;;;;;;;5071405;28;20222;-74
2023/06/09 02:35:14;;;;;;;8.63;7.73;;;;;;;;;;5070876;28;20240;-74
2023/06/09 02:37:41;;;;;;;7.80;7.00;;;;;;;;;;5072935;28;20174;-73
2023/06/09 02:40:08;;;;;;;9.17;8.23;;;;;;;;;;5069676;28;20181;-74
2023/06/09 02:42:33;;;;;;;9.97;8.70;;;;;;;;;;5068823;28;20188;-73
2023/06/09 02:44:58;;;;;;;8.27;7.47;;;;;;;;;;5067542;28;20178;-74
2023/06/09 02:47:23;;;;;;;8.63;7.73;;;;;;;;;;5047392;28;20320;-73
2023/06/09 02:49:48;;;;;;;8.23;7.43;;;;;;;;;;5053384;28;20216;-74
2023/06/09 02:52:14;;;;;;;8.17;7.37;;;;;;;;;;5061174;28;20180;-73
2023/06/09 02:54:40;;;;;;;8.77;8.07;;;;;;;;;;5051453;28;20176;-73
2023/06/09 02:57:06;;;;;;;9.13;8.30;;;;;;;;;;5054345;28;20204;-73
2023/06/09 02:59:32;;;;;;;8.83;7.97;;;;;;;;;;5068004;28;20184;-74
2023/06/09 03:01:57;;;;;;;9.03;7.60;;;;;;;;;;5058445;28;20188;-74
2023/06/09 03:04:23;;;;;;;8.13;7.33;;;;;;;;;;5054410;28;20342;-74
2023/06/09 03:06:50;;;;;;;9.07;7.57;;;;;;;;;;5051460;28;20187;-74
2023/06/09 03:09:15;;;;;;;7.83;6.77;;;;;;;;;;5065299;28;20223;-74
2023/06/09 03:11:41;;;;;;;8.00;7.30;;;;;;;;;;5075574;28;20169;-74
2023/06/09 03:14:07;;;;;;;8.73;7.93;;;;;;;;;;5072211;28;20175;-73
2023/06/09 03:16:32;;;;;;;9.33;8.53;;;;;;;;;;5048929;28;20173;-73
2023/06/09 03:18:57;;;;;;;8.33;7.63;;;;;;;;;;5051012;28;20188;-73
2023/06/09 03:21:24;;;;;;;8.93;8.03;;;;;;;;;;5066712;28;20172;-74
2023/06/09 03:23:49;;;;;;;8.37;7.60;;;;;;;;;;5050549;28;20199;-74
2023/06/09 03:26:15;;;;;;;9.13;8.33;;;;;;;;;;5051977;28;20204;-73
2023/06/09 03:28:40;;;;;;;8.23;7.43;;;;;;;;;;5049448;28;20180;-74
2023/06/09 03:31:06;;;;;;;7.93;7.13;;;;;;;;;;5051287;28;20180;-74
2023/06/09 03:33:31;;;;;;;8.47;7.47;;;;;;;;;;5067680;28;20179;-74
2023/06/09 03:35:56;;;;;;;8.53;7.73;;;;;;;;;;5049450;28;20190;-73
2023/06/09 03:38:21;;;;;;;9.07;8.27;;;;;;;;;;5050462;28;20176;-74
2023/06/09 03:40:47;;;;;;;7.93;7.23;;;;;;;;;;5072080;28;20186;-73
2023/06/09 03:43:12;;;;;;;9.27;8.30;;;;;;;;;;5064712;28;20184;-73
2023/06/09 03:45:37;;;;;;;9.80;8.80;;;;;;;;;;5052346;28;20211;-74
2023/06/09 03:48:05;;;;;;;8.90;7.97;;;;;;;;;;5048100;28;20183;-73
2023/06/09 03:50:30;;;;;;;8.77;7.90;;;;;;;;;;5066213;28;20231;-73
2023/06/09 03:52:55;;;;;;;8.87;8.03;;;;;;;;;;5045418;28;20210;-73
2023/06/09 03:55:22;;;;;;;9.37;8.57;;;;;;;;;;5046822;28;20176;-73
2023/06/09 03:57:48;;;;;;;9.67;8.83;;;;;;;;;;5051687;28;20219;-73
2023/06/09 04:00:15;;;;;;;9.70;8.70;;;;;;;;;;5065386;28;20222;-73
2023/06/09 04:02:40;;;;;;;10.00;9.10;;;;;;;;;;5067894;28;20184;-73
2023/06/09 04:05:05;;;;;;;8.93;7.40;;;;;;;;;;5073227;28;20226;-73
2023/06/09 04:07:30;;;;;;;11.60;8.17;;;;;;;;;;5068223;28;20180;-74
2023/06/09 04:09:55;;;;;;;10.00;8.97;;;;;;;;;;5050792;28;20263;-74
2023/06/09 04:12:21;;;;;;;10.50;8.60;;;;;;;;;;5063974;28;20240;-73
2023/06/09 04:14:46;;;;;;;9.70;8.80;;;;;;;;;;5064678;28;20183;-73
2023/06/09 04:17:11;;;;;;;9.70;8.70;;;;;;;;;;5066451;28;20178;-73
2023/06/09 04:19:36;;;;;;;8.93;8.03;;;;;;;;;;5046453;28;20192;-73
2023/06/09 04:22:05;;;;;;;9.03;8.10;;;;;;;;;;5046808;28;20191;-74
2023/06/09 04:24:31;;;;;;;10.10;9.10;;;;;;;;;;5046672;28;20190;-73
2023/06/09 04:26:57;;;;;;;9.13;8.23;;;;;;;;;;5062898;28;20183;-73
2023/06/09 04:29:23;;;;;;;10.57;8.60;;;;;;;;;;5064775;28;20195;-73
2023/06/09 04:31:53;;;;;;;9.60;8.73;;;;;;;;;;5062923;28;20173;-73
2023/06/09 04:34:18;;;;;;;11.50;8.30;;;;;;;;;;5051192;28;20183;-73
2023/06/09 04:36:44;;;;;;;9.67;8.77;;;;;;;;;;5059229;28;20175;-73
2023/06/09 04:39:12;;;;;;;11.13;10.03;;;;;;;;;;5067852;28;20180;-73
2023/06/09 04:41:37;;;;;;;10.43;9.53;;;;;;;;;;5043633;28;20186;-73
2023/06/09 04:44:05;;;;;;;11.53;10.37;;;;;;;;;;5067635;28;20186;-73
2023/06/09 04:46:37;;;;;;;9.90;9.00;;;;;;;;;;5047063;28;20189;-73
2023/06/09 04:49:08;;;;;;;10.20;9.30;;;;;;;;;;5070300;28;20282;-73
2023/06/09 04:51:41;;;;;;;10.17;9.27;;;;;;;;;;5068791;28;20172;-73
2023/06/09 04:54:07;;;;;;;14.87;10.30;;;;;;;;;;5074065;28;20184;-73
2023/06/09 04:56:32;;;;;;;10.50;9.50;;;;;;;;;;5055339;28;20199;-73
2023/06/09 04:58:58;;;;;;;9.43;8.53;;;;;;;;;;5055118;28;20184;-73
2023/06/09 05:01:23;;;;;;;11.17;10.03;;;;;;;;;;5051163;28;20175;-73
2023/06/09 05:03:48;;;;;;;10.50;9.50;;;;;;;;;;5048670;28;20201;-73
2023/06/09 05:06:13;;;;;;;10.07;9.17;;;;;;;;;;5051491;28;20228;-73
2023/06/09 05:08:38;;;;;;;10.10;9.20;;;;;;;;;;5049251;28;20262;-73
2023/06/09 05:11:04;;;;;;;8.93;8.10;;;;;;;;;;5062619;28;20216;-73
2023/06/09 05:13:29;;;;;;;9.17;8.37;;;;;;;;;;5068677;28;20212;-73
2023/06/09 05:15:57;;;;;;;9.63;8.73;;;;;;;;;;5070217;28;20242;-73
2023/06/09 05:18:22;;;;;;;10.00;9.10;;;;;;;;;;5050093;28;20201;-73
2023/06/09 05:20:47;;;;;;;10.80;9.63;;;;;;;;;;5052839;28;20243;-73
2023/06/09 05:23:13;;;;;;;10.83;9.83;;;;;;;;;;5071068;28;20242;-73
2023/06/09 05:25:38;;;;;;;10.83;9.83;;;;;;;;;;5079581;28;20189;-73
2023/06/09 05:28:03;;;;;;;9.77;8.77;;;;;;;;;;5051781;28;20229;-73
2023/06/09 05:30:28;;;;;;;8.93;8.17;;;;;;;;;;5074025;28;20236;-73
2023/06/09 05:32:54;;;;;;;9.17;8.27;;;;;;;;;;5052366;28;20178;-73
2023/06/09 05:35:19;;;;;;;10.07;8.97;;;;;;;;;;5068819;28;20249;-73
2023/06/09 05:37:51;;;;;;;9.20;8.30;;;;;;;;;;5049550;28;20265;-73
2023/06/09 05:40:16;;;;;;;8.77;8.07;;;;;;;;;;5050560;28;20177;-73
2023/06/09 05:42:41;;;;;;;8.63;7.73;;;;;;;;;;5051866;28;20235;-73
2023/06/09 05:45:07;;;;;;;9.07;8.27;;;;;;;;;;5068766;28;20182;-73
2023/06/09 05:47:33;;;;;;;9.53;8.63;;;;;;;;;;5073954;28;20187;-73
2023/06/09 05:49:58;;;;;;;8.60;7.70;;;;;;;;;;5074271;28;20202;-73
2023/06/09 05:52:24;;;;;;;8.57;7.87;;;;;;;;;;5076519;28;20175;-73
2023/06/09 05:54:49;;;;;;;8.63;7.93;;;;;;;;;;5082218;28;20169;-73
2023/06/09 05:57:15;;;;;;;9.03;8.23;;;;;;;;;;5076059;28;20202;-73
2023/06/09 05:59:41;;;;;;;7.20;6.50;;;;;;;;;;5074915;28;20178;-73
2023/06/09 06:02:06;;;;;;;8.23;7.37;;;;;;;;;;5079061;28;20182;-73
2023/06/09 06:04:31;;;;;;;7.83;6.90;;;;;;;;;;5067601;28;20232;-73
2023/06/09 06:06:57;;;;;;;7.37;6.77;;;;;;;;;;5031079;28;20233;-73
2023/06/09 06:09:22;;;;;;;8.13;7.43;;;;;;;;;;5054865;28;20200;-73
2023/06/09 06:11:48;;;;;;;7.83;7.10;;;;;;;;;;5050074;28;20183;-73
2023/06/09 06:14:13;;;;;;;8.17;7.40;;;;;;;;;;5052796;28;20173;-73
2023/06/09 06:16:38;;;;;;;8.37;7.67;;;;;;;;;;5033812;28;20225;-73
2023/06/09 06:19:03;;;;;;;7.30;6.60;;;;;;;;;;5035165;28;20175;-73
2023/06/09 06:21:29;;;;;;;8.00;7.20;;;;;;;;;;5048259;28;20262;-73
2023/06/09 06:23:54;;;;;;;7.40;6.73;;;;;;;;;;5052137;28;20172;-73
2023/06/09 06:26:19;;;;;;;7.97;7.13;;;;;;;;;;5044927;28;20211;-73
2023/06/09 06:28:45;;;;;;;8.60;7.60;;;;;;;;;;5051089;28;20175;-73
2023/06/09 06:31:10;;;;;;;7.50;6.90;;;;;;;;;;5046045;28;20211;-73
2023/06/09 06:33:35;;;;;;;8.20;7.40;;;;;;;;;;5026984;28;20188;-72
2023/06/09 06:36:01;;;;;;;7.90;7.20;;;;;;;;;;5027827;28;20212;-73
2023/06/09 06:38:26;;;;;;;7.70;6.77;;;;;;;;;;5056325;28;20203;-73
2023/06/09 06:40:51;;;;;;;7.47;6.77;;;;;;;;;;5053030;28;20191;-73
2023/06/09 06:43:16;;;;;;;7.33;6.57;;;;;;;;;;5052351;28;20187;-73
2023/06/09 06:45:42;;;;;;;7.13;6.53;;;;;;;;;;5048644;28;20220;-73
2023/06/09 06:48:07;;;;;;;7.73;6.57;;;;;;;;;;5029767;28;20189;-73
2023/06/09 06:50:35;;;;;;;7.30;6.60;;;;;;;;;;5041763;28;20336;-73
2023/06/09 06:53:00;;;;;;;6.57;6.00;;;;;;;;;;5048966;28;20185;-73
2023/06/09 06:55:26;;;;;;;7.03;6.43;;;;;;;;;;5048030;28;20188;-73
2023/06/09 06:57:51;;;;;;;6.93;6.33;;;;;;;;;;5035444;28;20226;-73
2023/06/09 07:00:16;;;;;;;6.40;5.80;;;;;;;;;;5032662;28;20177;-72
2023/06/09 07:02:43;;;;;;;6.53;6.03;;;;;;;;;;5028813;28;20185;-73
2023/06/09 07:05:08;;;;;;;6.37;5.77;;;;;;;;;;5034944;28;20358;-73
2023/06/09 07:07:33;;;;;;;6.67;5.90;;;;;;;;;;5065115;28;20269;-73
2023/06/09 07:09:59;;;;;;;7.00;6.33;;;;;;;;;;5051658;28;20208;-73
2023/06/09 07:12:24;;;;;;;5.93;5.43;;;;;;;;;;5064590;28;20335;-73
2023/06/09 07:14:50;;;;;;;6.73;6.20;;;;;;;;;;5061727;28;20348;-73
2023/06/09 07:17:15;;;;;;;6.10;5.50;;;;;;;;;;5048024;28;20192;-73
2023/06/09 07:19:40;;;;;;;5.83;5.33;;;;;;;;;;5046002;28;20181;-73
2023/06/09 07:22:05;;;;;;;5.97;5.47;;;;;;;;;;5062316;28;20193;-73
2023/06/09 07:24:30;;;;;;;6.47;5.87;;;;;;;;;;5064865;28;20183;-73
2023/06/09 07:26:56;;;;;;;6.23;5.53;;;;;;;;;;5063647;28;20183;-73
2023/06/09 07:29:21;;;;;;;5.87;5.23;;;;;;;;;;5055931;28;20299;-73
2023/06/09 07:31:46;;;;;;;5.03;4.53;;;;;;;;;;5044196;28;20180;-73
2023/06/09 07:34:12;;;;;;;6.67;4.73;;;;;;;;;;5053025;28;20172;-73
2023/06/09 07:36:39;;;;;;;5.30;4.90;;;;;;;;;;5069885;28;20183;-73
2023/06/09 07:39:04;;;;;;;5.83;5.17;;;;;;;;;;5071478;28;20195;-73
2023/06/09 07:41:30;;;;;;;5.37;4.97;;;;;;;;;;5050074;28;20255;-73
2023/06/09 07:43:56;;;;;;;5.40;5.00;;;;;;;;;;5050755;28;20188;-73
2023/06/09 07:46:22;;;;;;;5.57;5.13;;;;;;;;;;5067055;28;20234;-73
2023/06/09 07:48:47;;;;;;;5.90;5.30;;;;;;;;;;5050787;28;20195;-73
2023/06/09 07:51:14;;;;;;;5.50;5.00;;;;;;;;;;5053389;28;20201;-73
2023/06/09 07:53:39;;;;;;;6.93;5.27;;;;;;;;;;5074353;28;20181;-73
2023/06/09 07:56:04;;;;;;;5.07;4.67;;;;;;;;;;5067857;28;20255;-73
2023/06/09 07:58:29;;;;;;;5.70;5.20;;;;;;;;;;5070219;28;20283;-73
2023/06/09 08:00:55;;;;;;;5.40;5.00;;;;;;;;;;5066123;28;20185;-73
2023/06/09 08:03:20;;;;;;;5.03;4.63;;;;;;;;;;5079261;28;20200;-73
2023/06/09 08:05:46;;;;;;;5.33;4.83;;;;;;;;;;5074241;28;20284;-73
2023/06/09 08:08:11;;;;;;;5.07;4.67;;;;;;;;;;5072246;28;20186;-73
2023/06/09 08:10:36;;;;;;;5.13;4.63;;;;;;;;;;5054200;28;20200;-73
2023/06/09 08:13:02;;;;;;;5.20;4.70;;;;;;;;;;5065030;28;20183;-73
2023/06/09 08:15:27;;;;;;;5.20;4.80;;;;;;;;;;5050402;28;20184;-73
2023/06/09 08:17:52;;;;;;;5.40;5.00;;;;;;;;;;5053688;28;20186;-73
2023/06/09 08:20:17;;;;;;;5.47;4.97;;;;;;;;;;5050379;28;20328;-73
2023/06/09 08:22:43;;;;;;;4.47;4.17;;;;;;;;;;5076353;28;20181;-73
2023/06/09 08:25:09;;;;;;;4.80;4.40;;;;;;;;;;5071284;28;20179;-73
2023/06/09 08:27:35;;;;;;;5.53;5.03;;;;;;;;;;5066561;28;20184;-73
2023/06/09 08:30:00;;;;;;;4.90;4.50;;;;;;;;;;5069559;28;20200;-73
2023/06/09 08:32:26;;;;;;;4.50;4.10;;;;;;;;;;5060028;28;20171;-73
2023/06/09 08:34:51;;;;;;;7.53;4.83;;;;;;;;;;5054564;28;20210;-73
2023/06/09 08:37:16;;;;;;;5.30;4.80;;;;;;;;;;5060540;28;20263;-73
2023/06/09 08:39:41;;;;;;;5.10;4.60;;;;;;;;;;5058216;28;20243;-73
2023/06/09 08:42:10;;;;;;;4.87;4.47;;;;;;;;;;5054756;28;20186;-73
2023/06/09 08:44:38;;;;;;;5.00;4.57;;;;;;;;;;5060884;28;20180;-73
2023/06/09 08:47:04;;;;;;;4.43;4.13;;;;;;;;;;5074866;28;20181;-73
2023/06/09 08:49:29;;;;;;;4.47;4.07;;;;;;;;;;5063435;28;20208;-73
2023/06/09 08:51:54;;;;;;;4.73;4.30;;;;;;;;;;5079977;28;20233;-73
2023/06/09 08:54:20;;;;;;;4.73;4.43;;;;;;;;;;5051736;28;20169;-73
2023/06/09 08:56:47;;;;;;;5.43;4.83;;;;;;;;;;5052051;28;20264;-74
2023/06/09 08:59:13;;;;;;;7.57;4.33;;;;;;;;;;5069744;28;20261;-74
2023/06/09 09:01:38;;;;;;;4.53;4.17;;;;;;;;;;5047813;28;20261;-74
2023/06/09 09:04:03;;;;;;;8.05;7.25;;;;;;;;;;5071719;28;20173;-74
2023/06/09 09:06:29;;;;;;;5.75;5.20;;;;;;;;;;5051766;28;20264;-74
2023/06/09 09:08:54;;;;;;;7.30;4.83;;;;;;;;;;5073200;28;20202;-74
2023/06/09 09:11:19;;;;;;;5.18;4.78;;;;;;;;;;5053164;28;20249;-74
2023/06/09 09:13:48;;;;;;;4.75;4.30;;;;;;;;;;5072560;28;20237;-74
2023/06/09 09:16:14;;;;;;;8.00;4.68;;;;;;;;;;5051333;28;20189;-74
2023/06/09 09:18:43;;;;;;;5.28;4.88;;;;;;;;;;5049491;28;20182;-74
2023/06/09 09:21:08;;;;;;;4.90;4.50;;;;;;;;;;5070740;28;20174;-73
2023/06/09 09:23:33;;;;;;;5.28;3.80;;;;;;;;;;5067842;28;20173;-74
2023/06/09 09:26:00;;;;;;;4.13;3.65;;;;;;;;;;5065609;28;20189;-74
2023/06/09 09:28:25;;;;;;;4.07;3.75;;;;;;;;;;5060022;28;20260;-74
2023/06/09 09:30:51;;;;;;;4.50;4.10;;;;;;;;;;5071088;28;20243;-74
2023/06/09 09:33:21;;;;;;;4.78;4.28;;;;;;;;;;5059032;28;20170;-74
2023/06/09 09:35:48;;;;;;;3.92;3.63;;;;;;;;;;5069846;28;20178;-74
2023/06/09 09:38:20;;;;;;;4.03;3.72;;;;;;;;;;5073217;28;20177;-74
2023/06/09 09:40:47;;;;;;;4.35;3.97;;;;;;;;;;5073059;28;20209;-74
2023/06/09 09:43:12;;;;;;;4.60;3.78;;;;;;;;;;5080177;28;20226;-74
2023/06/09 09:45:45;;;;;;;3.90;3.60;;;;;;;;;;5052268;28;20178;-74
2023/06/09 09:48:12;;;;;;;4.10;3.78;;;;;;;;;;5052042;28;20241;-74
2023/06/09 09:50:37;;;;;;;4.35;4.00;;;;;;;;;;5072525;28;20205;-74
2023/06/09 09:53:04;;;;;;;4.57;3.75;;;;;;;;;;5076853;28;20182;-74
2023/06/09 09:55:29;;;;;;;4.78;4.10;;;;;;;;;;5074381;28;20169;-74
2023/06/09 09:57:55;;;;;;;4.07;3.78;;;;;;;;;;5067948;28;20194;-74
2023/06/09 10:00:21;;;;;;;4.60;4.22;;;;;;;;;;5055060;28;20190;-74
2023/06/09 10:02:46;;;;;;;4.30;3.92;;;;;;;;;;5080213;28;20177;-74
2023/06/09 10:05:15;;;;;;;4.18;3.88;;;;;;;;;;5054824;28;20229;-74
2023/06/09 10:07:42;;;;;;;4.65;4.07;;;;;;;;;;5066600;28;20192;-74
2023/06/09 10:10:08;;;;;;;4.32;3.92;;;;;;;;;;5050577;28;20201;-74
2023/06/09 10:12:35;;;;;;;4.80;4.40;;;;;;;;;;5047234;28;20176;-74
2023/06/09 10:15:01;;;;;;;5.30;4.00;;;;;;;;;;5063855;28;20178;-74
2023/06/09 10:17:27;;;;;;;4.72;4.32;;;;;;;;;;5067018;28;20229;-74
2023/06/09 10:19:52;;;;;;;5.10;4.65;;;;;;;;;;5065332;28;20170;-74
2023/06/09 10:22:21;;;;;;;4.65;4.25;;;;;;;;;;5075444;28;20177;-74
2023/06/09 10:24:49;;;;;;;4.30;4.00;;;;;;;;;;5048930;28;20211;-74
2023/06/09 10:27:14;;;;;;;4.53;4.20;;;;;;;;;;5072547;28;20228;-74
2023/06/09 10:29:40;;;;;;;4.28;3.95;;;;;;;;;;5071231;28;20205;-74
2023/06/09 10:32:07;;;;;;;4.30;4.00;;;;;;;;;;5072422;28;20280;-74
2023/06/09 10:34:32;;;;;;;5.25;4.75;;;;;;;;;;5056870;28;20238;-74
2023/06/09 10:36:58;;;;;;;4.70;4.30;;;;;;;;;;5054664;28;20267;-74
2023/06/09 10:39:25;;;;;;;3.83;3.53;;;;;;;;;;5069441;28;20211;-74
2023/06/09 10:41:53;;;;;;;4.82;4.10;;;;;;;;;;5067118;28;20182;-74
2023/06/09 10:44:19;;;;;;;4.75;4.30;;;;;;;;;;5071126;28;20285;-74
2023/06/09 10:46:48;;;;;;;4.82;4.43;;;;;;;;;;5048863;28;20273;-74
2023/06/09 10:49:25;;;;;;;4.78;4.43;;;;;;;;;;5066390;28;20182;-74
2023/06/09 10:51:51;;;;;;;4.82;4.43;;;;;;;;;;5053952;28;20173;-74
2023/06/09 10:54:16;;;;;;;4.78;4.38;;;;;;;;;;5057341;28;20185;-74
2023/06/09 10:56:45;;;;;;;4.55;4.13;;;;;;;;;;5048532;28;20197;-74
2023/06/09 10:59:26;;;;;;;4.72;3.88;;;;;;;;;;5056168;28;20174;-74
2023/06/09 11:02:03;;;;;;;4.60;4.25;;;;;;;;;;5066462;28;20226;-74
2023/06/09 11:04:37;;;;;;;5.40;4.90;;;;;;;;;;5060327;28;20287;-74
2023/06/09 11:07:12;;;;;;;5.40;4.38;;;;;;;;;;5047249;28;20192;-74
2023/06/09 11:09:37;;;;;;;5.07;4.50;;;;;;;;;;5031303;28;20210;-74
2023/06/09 11:12:03;;;;;;;5.53;4.45;;;;;;;;;;5053375;28;20190;-74
2023/06/09 11:14:51;;;;;;;4.93;4.53;;;;;;;;;;5034714;28;20174;-74
2023/06/09 11:17:19;;;;;;;5.20;4.57;;;;;;;;;;5033123;28;20190;-74
2023/06/09 11:19:45;;;;;;;4.68;4.28;;;;;;;;;;5040632;28;20209;-74
2023/06/09 11:22:11;;;;;;;5.68;4.57;;;;;;;;;;5050839;28;20186;-74
2023/06/09 11:24:49;;;;;;;5.03;4.60;;;;;;;;;;5048765;28;20186;-75
2023/06/09 11:27:22;;;;;;;5.43;4.65;;;;;;;;;;5038504;28;20185;-74
2023/06/09 11:30:05;;;;;;;5.13;4.72;;;;;;;;;;5050822;28;20217;-75
2023/06/09 11:32:43;;;;;;;4.78;4.38;;;;;;;;;;5050560;28;20174;-75
2023/06/09 11:35:08;;;;;;;4.50;4.20;;;;;;;;;;5030576;28;20183;-74
2023/06/09 11:37:33;;;;;;;4.90;4.60;;;;;;;;;;5033182;28;20177;-75
2023/06/09 11:39:59;;;;;;;4.72;4.30;;;;;;;;;;5032605;28;20185;-74
2023/06/09 11:42:25;;;;;;;4.30;4.00;;;;;;;;;;5033158;28;20174;-75
2023/06/09 11:44:51;;;;;;;5.00;4.60;;;;;;;;;;5037418;28;20182;-74
2023/06/09 11:47:26;;;;;;;4.40;4.00;;;;;;;;;;5035001;28;20221;-74
2023/06/09 11:50:17;;;;;;;4.38;4.00;;;;;;;;;;5038565;28;20288;-75
2023/06/09 11:52:44;;;;;;;5.15;4.75;;;;;;;;;;5038456;28;20190;-75
2023/06/09 11:55:11;;;;;;;4.53;4.13;;;;;;;;;;5050002;28;20178;-75
2023/06/09 11:57:37;;;;;;;4.47;4.07;;;;;;;;;;5030153;28;20193;-75
2023/06/09 12:00:14;;;;;;;4.57;4.28;;;;;;;;;;5029495;28;20182;-75
2023/06/09 12:02:43;;;;;;;4.93;4.53;;;;;;;;;;5050670;28;20208;-74
2023/06/09 12:05:10;;;;;;;4.22;3.92;;;;;;;;;;5035290;28;20228;-74
2023/06/09 12:07:35;;;;;;;10.98;4.68;;;;;;;;;;5063836;28;20180;-75
2023/06/09 12:10:00;;;;;;;5.00;4.53;;;;;;;;;;5072754;28;20205;-75
2023/06/09 12:12:26;;;;;;;4.30;4.00;;;;;;;;;;5057529;28;20264;-75
2023/06/09 12:14:51;;;;;;;4.55;4.15;;;;;;;;;;5066208;28;20170;-75
2023/06/09 12:17:16;;;;;;;5.00;4.60;;;;;;;;;;5062645;28;20171;-75
2023/06/09 12:19:41;;;;;;;4.07;3.78;;;;;;;;;;5044249;28;20219;-75
2023/06/09 12:22:07;;;;;;;4.43;4.03;;;;;;;;;;5074279;28;20177;-75
2023/06/09 12:24:32;;;;;;;5.85;4.57;;;;;;;;;;5072785;28;20508;-75
2023/06/09 12:27:09;;;;;;;4.47;4.18;;;;;;;;;;5068864;28;20188;-74
2023/06/09 12:29:34;;;;;;;4.28;3.88;;;;;;;;;;5049118;28;20276;-75
2023/06/09 12:31:59;;;;;;;4.32;4.03;;;;;;;;;;5071657;28;20292;-75
2023/06/09 12:34:29;;;;;;;5.03;3.85;;;;;;;;;;5074694;28;20174;-75
2023/06/09 12:36:54;;;;;;;4.88;4.38;;;;;;;;;;5066988;28;20216;-75
2023/06/09 12:39:20;;;;;;;4.25;3.85;;;;;;;;;;5050882;28;20178;-74
2023/06/09 12:41:45;;;;;;;3.55;3.25;;;;;;;;;;5059689;28;20183;-75
2023/06/09 12:44:21;;;;;;;4.72;4.32;;;;;;;;;;5073710;28;20177;-75
2023/06/09 12:46:47;;;;;;;4.43;4.05;;;;;;;;;;5075310;28;20184;-75
2023/06/09 12:49:12;;;;;;;4.72;4.00;;;;;;;;;;5055736;28;20182;-75
2023/06/09 12:51:40;;;;;;;3.38;3.15;;;;;;;;;;5067952;28;20177;-75
2023/06/09 12:54:05;;;;;;;4.57;4.15;;;;;;;;;;5050624;28;20180;-75
2023/06/09 12:56:31;;;;;;;4.22;3.50;;;;;;;;;;5056454;28;20196;-75
2023/06/09 12:58:56;;;;;;;3.95;3.28;;;;;;;;;;5054621;28;20265;-75
2023/06/09 13:01:22;;;;;;;4.43;3.85;;;;;;;;;;5073179;28;20177;-75
2023/06/09 13:03:47;;;;;;;3.83;3.38;;;;;;;;;;5074978;28;20177;-75
2023/06/09 13:06:13;;;;;;;4.20;3.88;;;;;;;;;;5054248;28;20259;-75
2023/06/09 13:08:38;;;;;;;3.92;3.47;;;;;;;;;;5035043;28;20229;-75
2023/06/09 13:11:03;;;;;;;3.67;3.10;;;;;;;;;;5061090;28;20276;-75
2023/06/09 13:13:28;;;;;;;4.47;3.45;;;;;;;;;;5055633;28;20167;-75
2023/06/09 13:15:54;;;;;;;3.55;3.28;;;;;;;;;;5030635;28;20178;-75
2023/06/09 13:18:19;;;;;;;3.70;3.30;;;;;;;;;;5069826;28;20233;-75
2023/06/09 13:20:44;;;;;;;3.45;3.25;;;;;;;;;;5034759;28;20182;-75
2023/06/09 13:23:09;;;;;;;3.78;3.47;;;;;;;;;;5035822;28;20213;-75
2023/06/09 13:25:40;;;;;;;3.58;3.25;;;;;;;;;;5036816;28;20181;-75
2023/06/09 13:28:06;;;;;;;4.32;3.47;;;;;;;;;;5037945;28;20189;-75
2023/06/09 13:30:31;;;;;;;4.00;3.40;;;;;;;;;;5057560;28;20204;-75
2023/06/09 13:32:56;;;;;;;3.67;3.23;;;;;;;;;;5052678;28;20215;-75
2023/06/09 13:35:21;;;;;;;3.33;3.13;;;;;;;;;;5038023;28;20513;-74
2023/06/09 13:37:46;;;;;;;3.83;3.42;;;;;;;;;;5058290;28;20186;-74
2023/06/09 13:40:12;;;;;;;4.00;3.70;;;;;;;;;;5052920;28;20209;-75
2023/06/09 13:42:37;;;;;;;3.73;3.43;;;;;;;;;;5032204;28;20262;-74
2023/06/09 13:45:03;;;;;;;3.60;3.30;;;;;;;;;;5045346;28;20422;-74
2023/06/09 13:47:28;;;;;;;3.20;3.00;;;;;;;;;;5037425;28;20178;-75
2023/06/09 13:49:54;;;;;;;4.10;3.77;;;;;;;;;;5038839;28;20200;-75
2023/06/09 13:52:20;;;;;;;3.50;3.30;;;;;;;;;;5038202;28;20426;-75
2023/06/09 13:54:45;;;;;;;3.65;3.40;;;;;;;;;;5038349;28;20179;-75
2023/06/09 13:57:11;;;;;;;3.50;3.20;;;;;;;;;;5051902;28;20198;-75
2023/06/09 13:59:36;;;;;;;4.47;3.28;;;;;;;;;;5036174;28;20224;-75
2023/06/09 14:02:02;;;;;;;3.90;3.60;;;;;;;;;;5049726;28;20182;-75
2023/06/09 14:04:27;;;;;;;4.22;3.67;;;;;;;;;;5031069;28;20175;-75
2023/06/09 14:06:52;;;;;;;3.80;3.50;;;;;;;;;;5054957;28;20237;-75
2023/06/09 14:09:17;;;;;;;3.65;3.35;;;;;;;;;;5057382;28;20173;-75
2023/06/09 14:11:42;;;;;;;3.53;3.23;;;;;;;;;;5048016;28;20339;-75
2023/06/09 14:14:08;;;;;;;3.60;3.40;;;;;;;;;;5050362;28;20418;-75
2023/06/09 14:16:33;;;;;;;3.92;3.63;;;;;;;;;;5076295;28;20179;-75
2023/06/09 14:18:59;;;;;;;3.80;3.45;;;;;;;;;;5051823;28;20178;-75
2023/06/09 14:21:24;;;;;;;3.83;3.53;;;;;;;;;;5051714;28;20181;-75
2023/06/09 14:23:49;;;;;;;4.03;3.72;;;;;;;;;;5067105;28;20193;-74
2023/06/09 14:26:15;;;;;;;4.45;3.40;;;;;;;;;;5074170;28;20208;-75
2023/06/09 14:28:41;;;;;;;3.75;3.45;;;;;;;;;;5054857;28;20182;-74
2023/06/09 14:31:06;;;;;;;3.70;3.40;;;;;;;;;;5049163;28;20213;-75
2023/06/09 14:33:32;;;;;;;4.22;3.92;;;;;;;;;;5061898;28;20240;-75
2023/06/09 14:35:57;;;;;;;7.32;4.22;;;;;;;;;;5049201;28;20180;-75
2023/06/09 14:38:22;;;;;;;3.87;3.57;;;;;;;;;;5048932;28;20184;-74